createdAt,value
2022-10-22T00:00:04.075Z,0.00
2022-10-22T00:01:04.014Z,0.00
2022-10-22T00:02:03.995Z,0.00
2022-10-22T00:03:04.005Z,0.00
2022-10-22T00:04:03.947Z,0.00
2022-10-22T00:05:03.931Z,0.00
2022-10-22T00:06:03.933Z,0.00
2022-10-22T00:07:03.932Z,0.00
2022-10-22T00:08:03.864Z,0.00
2022-10-22T00:09:03.938Z,0.00
2022-10-22T00:10:03.821Z,0.00
2022-10-22T00:11:03.827Z,0.00
2022-10-22T00:12:03.782Z,0.00
2022-10-22T00:13:03.753Z,0.00
2022-10-22T00:14:03.732Z,0.00
2022-10-22T00:15:03.704Z,0.00
2022-10-22T00:16:03.715Z,0.00
2022-10-22T00:17:05.819Z,0.00
2022-10-22T00:18:04.650Z,0.00
2022-10-22T00:19:03.870Z,0.00
2022-10-22T00:20:03.611Z,0.00
2022-10-22T00:21:03.622Z,0.00
2022-10-22T00:22:03.561Z,0.00
2022-10-22T00:23:03.552Z,0.00
2022-10-22T00:24:03.522Z,0.00
2022-10-22T00:25:03.500Z,0.00
2022-10-22T00:26:03.515Z,0.00
2022-10-22T00:27:03.459Z,0.00
2022-10-22T00:28:03.465Z,0.00
2022-10-22T00:29:03.423Z,0.00
2022-10-22T00:30:03.420Z,0.00
2022-10-22T00:31:03.402Z,0.00
2022-10-22T00:32:03.336Z,0.00
2022-10-22T00:33:03.346Z,0.00
2022-10-22T00:34:03.289Z,0.00
2022-10-22T00:35:03.285Z,0.00
2022-10-22T00:36:03.276Z,0.00
2022-10-22T00:37:03.224Z,0.00
2022-10-22T00:38:03.202Z,0.00
2022-10-22T00:39:03.218Z,0.00
2022-10-22T00:40:03.161Z,0.00
2022-10-22T00:41:03.257Z,0.00
2022-10-22T00:42:03.118Z,0.00
2022-10-22T00:43:03.094Z,0.00
2022-10-22T00:44:03.084Z,0.00
2022-10-22T00:45:03.055Z,0.00
2022-10-22T00:46:03.061Z,0.00
2022-10-22T00:47:03.012Z,0.00
2022-10-22T00:48:02.989Z,0.00
2022-10-22T00:49:02.967Z,0.00
2022-10-22T00:51:02.958Z,0.00
2022-10-22T00:52:02.897Z,0.00
2022-10-22T00:53:02.887Z,0.00
2022-10-22T00:54:02.857Z,0.00
2022-10-22T00:55:02.840Z,0.00
2022-10-22T00:56:02.843Z,0.00
2022-10-22T00:57:02.794Z,0.00
2022-10-22T00:58:02.775Z,0.00
2022-10-22T00:59:02.774Z,0.00
2022-10-22T01:00:02.737Z,0.00
2022-10-22T01:01:02.785Z,0.00
2022-10-22T01:02:02.677Z,0.00
2022-10-22T01:03:02.656Z,0.00
2022-10-22T01:04:02.647Z,0.00
2022-10-22T01:05:02.614Z,0.00
2022-10-22T01:06:02.617Z,0.00
2022-10-22T01:07:02.565Z,0.00
2022-10-22T01:08:02.611Z,0.00
2022-10-22T01:09:02.584Z,0.00
2022-10-22T01:10:02.512Z,0.00
2022-10-22T01:11:02.510Z,0.00
2022-10-22T01:12:02.456Z,0.00
2022-10-22T01:13:02.435Z,0.00
2022-10-22T01:14:02.539Z,0.00
2022-10-22T01:15:02.393Z,0.00
2022-10-22T01:16:02.403Z,0.00
2022-10-22T01:17:02.344Z,0.00
2022-10-22T01:18:02.326Z,0.00
2022-10-22T01:19:02.302Z,0.00
2022-10-22T01:20:02.280Z,0.00
2022-10-22T01:21:02.296Z,0.00
2022-10-22T01:22:02.239Z,0.00
2022-10-22T01:23:02.224Z,0.00
2022-10-22T01:24:02.201Z,0.00
2022-10-22T01:25:02.173Z,0.00
2022-10-22T01:26:02.176Z,0.00
2022-10-22T01:27:02.127Z,0.00
2022-10-22T01:28:02.108Z,0.00
2022-10-22T01:29:02.138Z,0.00
2022-10-22T01:30:02.060Z,0.00
2022-10-22T01:31:02.074Z,0.00
2022-10-22T01:32:02.018Z,0.00
2022-10-22T01:33:02.000Z,0.00
2022-10-22T01:34:01.974Z,0.00
2022-10-22T01:35:01.952Z,0.00
2022-10-22T01:36:01.947Z,0.00
2022-10-22T01:37:02.915Z,0.00
2022-10-22T01:38:01.889Z,0.00
2022-10-22T01:39:01.891Z,0.00
2022-10-22T01:40:01.843Z,0.00
2022-10-22T01:41:01.855Z,0.00
2022-10-22T01:42:01.801Z,0.00
2022-10-22T01:43:01.787Z,0.00
2022-10-22T01:44:01.760Z,0.00
2022-10-22T01:45:01.743Z,0.00
2022-10-22T01:46:01.742Z,0.00
2022-10-22T01:47:01.688Z,0.00
2022-10-22T01:48:02.692Z,0.00
2022-10-22T01:49:01.662Z,0.00
2022-10-22T01:50:01.641Z,0.00
2022-10-22T01:51:01.687Z,0.00
2022-10-22T01:52:01.617Z,0.00
2022-10-22T01:53:01.628Z,0.00
2022-10-22T01:54:01.548Z,0.00
2022-10-22T01:55:01.525Z,0.00
2022-10-22T01:56:01.537Z,0.00
2022-10-22T01:57:01.484Z,0.00
2022-10-22T01:58:01.467Z,0.00
2022-10-22T01:59:01.440Z,0.00
2022-10-22T02:00:01.423Z,0.00
2022-10-22T02:01:01.462Z,0.00
2022-10-22T02:02:01.385Z,0.00
2022-10-22T02:03:01.357Z,0.00
2022-10-22T02:04:01.336Z,0.00
2022-10-22T02:05:01.314Z,0.00
2022-10-22T02:06:01.312Z,0.00
2022-10-22T02:07:02.268Z,0.00
2022-10-22T02:08:01.243Z,0.00
2022-10-22T02:09:01.305Z,0.00
2022-10-22T02:10:01.203Z,0.00
2022-10-22T02:11:01.213Z,0.00
2022-10-22T02:12:01.183Z,0.00
2022-10-22T02:13:01.135Z,0.00
2022-10-22T02:14:01.115Z,0.00
2022-10-22T02:15:01.093Z,0.00
2022-10-22T02:16:01.096Z,0.00
2022-10-22T02:17:01.049Z,0.00
2022-10-22T02:18:01.025Z,0.00
2022-10-22T02:19:01.001Z,0.00
2022-10-22T02:20:00.984Z,0.00
2022-10-22T02:21:01.032Z,0.00
2022-10-22T02:22:00.937Z,0.00
2022-10-22T02:23:00.919Z,0.00
2022-10-22T02:24:00.892Z,0.00
2022-10-22T02:25:00.869Z,0.00
2022-10-22T02:26:00.877Z,0.00
2022-10-22T02:27:00.826Z,0.00
2022-10-22T02:28:00.810Z,0.00
2022-10-22T02:29:00.845Z,0.00
2022-10-22T02:30:00.839Z,0.00
2022-10-22T02:31:00.776Z,0.00
2022-10-22T02:32:00.723Z,0.00
2022-10-22T02:33:00.705Z,0.00
2022-10-22T02:34:00.683Z,0.00
2022-10-22T02:35:00.661Z,0.00
2022-10-22T02:36:00.665Z,0.00
2022-10-22T02:37:00.619Z,0.00
2022-10-22T02:38:00.597Z,0.00
2022-10-22T02:39:00.572Z,0.00
2022-10-22T02:40:00.553Z,0.00
2022-10-22T02:41:00.553Z,0.00
2022-10-22T02:42:00.510Z,0.00
2022-10-22T02:43:00.486Z,0.00
2022-10-22T02:44:00.468Z,0.00
2022-10-22T02:45:00.440Z,0.00
2022-10-22T02:46:00.447Z,0.00
2022-10-22T02:47:00.399Z,0.00
2022-10-22T02:48:00.374Z,0.00
2022-10-22T02:49:00.352Z,0.00
2022-10-22T02:50:00.327Z,0.00
2022-10-22T02:51:00.336Z,0.00
2022-10-22T02:52:00.284Z,0.00
2022-10-22T02:53:00.263Z,0.00
2022-10-22T02:54:00.244Z,0.00
2022-10-22T02:55:00.220Z,0.00
2022-10-22T02:56:00.230Z,0.00
2022-10-22T02:57:00.178Z,0.00
2022-10-22T02:58:00.156Z,0.00
2022-10-22T02:59:00.139Z,0.00
2022-10-22T03:00:00.121Z,0.00
2022-10-22T03:01:00.224Z,0.00
2022-10-22T03:02:00.079Z,0.00
2022-10-22T03:03:00.047Z,0.00
2022-10-22T03:04:00.034Z,0.00
2022-10-22T03:05:00.017Z,0.00
2022-10-22T03:06:00.014Z,0.00
2022-10-22T03:06:59.972Z,0.00
2022-10-22T03:07:59.950Z,0.00
2022-10-22T03:08:59.978Z,0.00
2022-10-22T03:09:59.906Z,0.00
2022-10-22T03:10:59.883Z,0.00
2022-10-22T03:11:59.894Z,0.00
2022-10-22T03:12:59.845Z,0.00
2022-10-22T03:13:59.822Z,0.00
2022-10-22T03:14:59.799Z,0.00
2022-10-22T03:15:59.778Z,0.00
2022-10-22T03:16:59.794Z,0.00
2022-10-22T03:17:59.738Z,0.00
2022-10-22T03:18:59.711Z,0.00
2022-10-22T03:19:59.693Z,0.00
2022-10-22T03:20:59.676Z,0.00
2022-10-22T03:21:59.684Z,0.00
2022-10-22T03:22:59.632Z,0.00
2022-10-22T03:23:59.602Z,0.00
2022-10-22T03:24:59.583Z,0.00
2022-10-22T03:27:00.570Z,0.00
2022-10-22T03:27:59.523Z,0.00
2022-10-22T03:28:59.506Z,0.00
2022-10-22T03:29:59.501Z,0.00
2022-10-22T03:30:59.458Z,0.00
2022-10-22T03:31:59.452Z,0.00
2022-10-22T03:33:00.416Z,0.00
2022-10-22T03:33:59.397Z,0.00
2022-10-22T03:36:00.358Z,0.00
2022-10-22T03:36:59.375Z,0.00
2022-10-22T03:37:59.314Z,0.00
2022-10-22T03:38:59.289Z,0.00
2022-10-22T03:39:59.278Z,0.00
2022-10-22T03:40:59.267Z,0.00
2022-10-22T03:41:59.261Z,0.00
2022-10-22T03:42:59.200Z,0.00
2022-10-22T03:43:59.203Z,0.00
2022-10-22T03:44:59.175Z,0.00
2022-10-22T03:45:59.150Z,0.00
2022-10-22T03:47:01.766Z,0.00
2022-10-22T03:47:59.120Z,0.00
2022-10-22T03:48:59.081Z,0.00
2022-10-22T03:49:59.051Z,0.00
2022-10-22T03:50:59.036Z,0.00
2022-10-22T03:51:59.043Z,0.00
2022-10-22T03:52:58.997Z,0.00
2022-10-22T03:53:58.987Z,0.00
2022-10-22T03:54:58.956Z,0.00
2022-10-22T03:55:58.925Z,0.00
2022-10-22T03:56:58.949Z,0.00
2022-10-22T03:57:58.890Z,0.00
2022-10-22T03:58:58.869Z,0.00
2022-10-22T03:59:58.841Z,0.00
2022-10-22T04:00:58.873Z,0.00
2022-10-22T04:01:58.855Z,0.00
2022-10-22T04:02:58.778Z,0.00
2022-10-22T04:03:58.787Z,0.00
2022-10-22T04:04:58.800Z,0.00
2022-10-22T04:05:58.706Z,0.00
2022-10-22T04:06:58.709Z,0.00
2022-10-22T04:07:58.661Z,0.00
2022-10-22T04:08:58.670Z,0.00
2022-10-22T04:09:58.617Z,0.00
2022-10-22T04:10:58.594Z,0.00
2022-10-22T04:11:58.597Z,0.00
2022-10-22T04:12:58.550Z,0.00
2022-10-22T04:13:58.523Z,0.00
2022-10-22T04:14:58.503Z,0.00
2022-10-22T04:15:58.484Z,0.00
2022-10-22T04:16:58.492Z,0.00
2022-10-22T04:17:58.436Z,0.00
2022-10-22T04:18:58.417Z,0.00
2022-10-22T04:19:58.397Z,0.00
2022-10-22T04:20:58.372Z,0.00
2022-10-22T04:21:58.383Z,0.00
2022-10-22T04:22:58.326Z,0.00
2022-10-22T04:23:58.308Z,0.00
2022-10-22T04:24:58.281Z,0.00
2022-10-22T04:25:58.259Z,0.00
2022-10-22T04:26:58.266Z,0.00
2022-10-22T04:27:58.218Z,0.00
2022-10-22T04:28:58.195Z,0.00
2022-10-22T04:29:58.171Z,0.00
2022-10-22T04:30:58.151Z,0.00
2022-10-22T04:31:58.161Z,0.00
2022-10-22T04:32:58.109Z,0.00
2022-10-22T04:33:58.096Z,0.00
2022-10-22T04:34:58.073Z,0.00
2022-10-22T04:35:58.046Z,0.00
2022-10-22T04:36:58.047Z,0.00
2022-10-22T04:37:58.002Z,0.00
2022-10-22T04:38:57.982Z,0.00
2022-10-22T04:39:58.371Z,0.00
2022-10-22T04:40:57.934Z,0.00
2022-10-22T04:41:57.944Z,0.00
2022-10-22T04:42:57.889Z,0.00
2022-10-22T04:43:57.873Z,0.00
2022-10-22T04:44:57.853Z,0.00
2022-10-22T04:46:57.823Z,0.00
2022-10-22T04:47:58.786Z,0.00
2022-10-22T04:48:57.772Z,0.00
2022-10-22T04:49:57.748Z,0.00
2022-10-22T04:50:57.723Z,0.00
2022-10-22T04:51:57.726Z,0.00
2022-10-22T04:52:57.701Z,0.00
2022-10-22T04:53:57.658Z,0.00
2022-10-22T04:54:57.639Z,0.00
2022-10-22T04:55:57.624Z,0.00
2022-10-22T04:56:57.629Z,0.00
2022-10-22T04:57:57.577Z,0.00
2022-10-22T04:58:57.557Z,0.00
2022-10-22T04:59:57.544Z,0.00
2022-10-22T05:00:57.598Z,0.00
2022-10-22T05:01:57.529Z,0.00
2022-10-22T05:02:57.467Z,0.00
2022-10-22T05:03:57.449Z,0.00
2022-10-22T05:04:57.423Z,0.00
2022-10-22T05:05:57.403Z,0.00
2022-10-22T05:06:57.412Z,0.00
2022-10-22T05:07:57.358Z,0.00
2022-10-22T05:08:57.416Z,0.00
2022-10-22T05:09:57.325Z,0.00
2022-10-22T05:10:57.299Z,0.00
2022-10-22T05:11:57.300Z,0.00
2022-10-22T05:12:57.254Z,0.00
2022-10-22T05:13:57.232Z,0.00
2022-10-22T05:14:57.198Z,0.00
2022-10-22T05:15:58.189Z,0.00
2022-10-22T05:16:57.198Z,0.00
2022-10-22T05:17:57.147Z,0.00
2022-10-22T05:18:57.129Z,0.00
2022-10-22T05:19:57.108Z,0.00
2022-10-22T05:20:57.086Z,0.00
2022-10-22T05:21:57.091Z,0.00
2022-10-22T05:22:57.037Z,0.00
2022-10-22T05:23:57.016Z,0.00
2022-10-22T05:24:56.998Z,0.00
2022-10-22T05:25:56.977Z,0.00
2022-10-22T05:26:56.983Z,0.00
2022-10-22T05:27:58.419Z,0.00
2022-10-22T05:28:56.909Z,0.00
2022-10-22T05:29:56.890Z,0.00
2022-10-22T05:30:56.870Z,0.00
2022-10-22T05:31:56.870Z,0.00
2022-10-22T05:32:56.822Z,4.00
2022-10-22T05:33:56.804Z,4.00
2022-10-22T05:34:56.780Z,0.00
2022-10-22T05:35:56.760Z,4.00
2022-10-22T05:36:56.779Z,4.00
2022-10-22T05:38:57.698Z,4.00
2022-10-22T05:40:06.561Z,8.00
2022-10-22T05:40:58.652Z,8.00
2022-10-22T05:41:56.661Z,8.00
2022-10-22T05:42:56.609Z,12.00
2022-10-22T05:43:56.590Z,16.00
2022-10-22T05:44:56.561Z,16.00
2022-10-22T05:45:56.539Z,20.00
2022-10-22T05:46:56.548Z,20.00
2022-10-22T05:47:56.503Z,24.00
2022-10-22T05:48:56.476Z,32.00
2022-10-22T05:49:56.454Z,32.00
2022-10-22T05:50:56.431Z,44.00
2022-10-22T05:51:56.441Z,48.00
2022-10-22T05:52:56.390Z,56.00
2022-10-22T05:53:56.366Z,64.00
2022-10-22T05:54:56.343Z,72.00
2022-10-22T05:55:56.320Z,80.00
2022-10-22T05:56:56.337Z,92.00
2022-10-22T05:57:56.298Z,92.00
2022-10-22T05:58:56.310Z,104.00
2022-10-22T05:59:56.236Z,120.00
2022-10-22T06:00:56.229Z,128.00
2022-10-22T06:01:56.263Z,148.00
2022-10-22T06:02:56.169Z,172.00
2022-10-22T06:03:56.154Z,164.00
2022-10-22T06:04:56.134Z,172.00
2022-10-22T06:05:56.101Z,176.00
2022-10-22T06:06:56.111Z,176.00
2022-10-22T06:07:56.055Z,168.00
2022-10-22T06:08:56.069Z,176.00
2022-10-22T06:09:56.014Z,192.00
2022-10-22T06:10:55.986Z,220.00
2022-10-22T06:11:55.995Z,224.00
2022-10-22T06:12:55.945Z,228.00
2022-10-22T06:13:55.922Z,240.00
2022-10-22T06:14:55.902Z,292.00
2022-10-22T06:15:55.876Z,312.00
2022-10-22T06:16:55.882Z,304.00
2022-10-22T06:17:55.828Z,308.00
2022-10-22T06:18:55.801Z,296.00
2022-10-22T06:19:55.821Z,284.00
2022-10-22T06:20:55.759Z,304.00
2022-10-22T06:21:55.765Z,292.00
2022-10-22T06:22:55.716Z,288.00
2022-10-22T06:23:55.692Z,288.00
2022-10-22T06:24:55.670Z,292.00
2022-10-22T06:25:55.647Z,328.00
2022-10-22T06:26:55.675Z,364.00
2022-10-22T06:27:55.611Z,384.00
2022-10-22T06:28:55.582Z,400.00
2022-10-22T06:29:55.561Z,420.00
2022-10-22T06:30:55.538Z,448.00
2022-10-22T06:31:55.544Z,444.00
2022-10-22T06:32:55.487Z,444.00
2022-10-22T06:33:55.468Z,452.00
2022-10-22T06:34:55.449Z,436.00
2022-10-22T06:35:55.425Z,448.00
2022-10-22T06:36:55.428Z,492.00
2022-10-22T06:37:55.376Z,548.00
2022-10-22T06:38:55.427Z,524.00
2022-10-22T06:39:55.331Z,548.00
2022-10-22T06:40:55.308Z,524.00
2022-10-22T06:41:55.313Z,528.00
2022-10-22T06:42:55.262Z,548.00
2022-10-22T06:43:55.237Z,596.00
2022-10-22T06:44:55.240Z,624.00
2022-10-22T06:45:55.197Z,660.00
2022-10-22T06:46:55.196Z,724.00
2022-10-22T06:47:55.144Z,728.00
2022-10-22T06:48:55.121Z,756.00
2022-10-22T06:49:55.098Z,876.00
2022-10-22T06:50:55.076Z,1196.00
2022-10-22T06:51:55.085Z,1584.00
2022-10-22T06:52:55.027Z,1576.00
2022-10-22T06:53:55.011Z,1380.00
2022-10-22T06:54:54.982Z,1332.00
2022-10-22T06:55:54.958Z,1352.00
2022-10-22T06:56:54.976Z,1592.00
2022-10-22T06:57:54.909Z,1964.00
2022-10-22T06:58:54.889Z,2380.00
2022-10-22T06:59:54.861Z,2652.00
2022-10-22T07:00:54.890Z,2372.00
2022-10-22T07:01:54.856Z,3152.00
2022-10-22T07:02:57.732Z,6040.00
2022-10-22T07:03:55.773Z,7844.00
2022-10-22T07:04:54.751Z,8156.00
2022-10-22T07:05:54.741Z,7672.00
2022-10-22T07:06:54.733Z,12516.00
2022-10-22T07:07:54.691Z,33344.00
2022-10-22T07:08:54.799Z,18048.00
2022-10-22T07:09:54.635Z,12864.00
2022-10-22T07:10:54.615Z,13016.00
2022-10-22T07:11:54.620Z,37568.00
2022-10-22T07:12:54.583Z,37920.00
2022-10-22T07:13:54.545Z,18016.00
2022-10-22T07:14:54.525Z,45088.00
2022-10-22T07:15:54.533Z,37504.00
2022-10-22T07:16:54.504Z,16768.00
2022-10-22T07:17:54.456Z,23040.00
2022-10-22T07:18:54.435Z,33408.00
2022-10-22T07:19:54.417Z,35264.00
2022-10-22T07:20:54.395Z,43296.00
2022-10-22T07:21:54.414Z,49952.00
2022-10-22T07:22:54.357Z,55872.00
2022-10-22T07:23:54.344Z,57152.00
2022-10-22T07:24:54.333Z,62848.00
2022-10-22T07:25:54.303Z,24864.00
2022-10-22T07:26:54.309Z,11888.00
2022-10-22T07:27:54.266Z,34080.00
2022-10-22T07:28:54.248Z,18080.00
2022-10-22T07:29:54.224Z,25760.00
2022-10-22T07:30:54.206Z,70336.00
2022-10-22T07:31:54.212Z,63648.00
2022-10-22T07:32:54.170Z,55424.00
2022-10-22T07:33:54.149Z,42784.00
2022-10-22T07:34:54.129Z,35776.00
2022-10-22T07:35:54.112Z,37088.00
2022-10-22T07:36:54.131Z,40320.00
2022-10-22T07:37:54.073Z,46656.00
2022-10-22T07:38:54.055Z,41056.00
2022-10-22T07:39:54.041Z,57248.00
2022-10-22T07:40:54.045Z,59232.00
2022-10-22T07:41:54.041Z,57856.00
2022-10-22T07:42:54.008Z,20576.00
2022-10-22T07:43:53.979Z,25696.00
2022-10-22T07:44:53.945Z,28608.00
2022-10-22T07:45:53.931Z,63744.00
2022-10-22T07:46:54.727Z,26752.00
2022-10-22T07:47:53.889Z,26528.00
2022-10-22T07:48:53.873Z,57280.00
2022-10-22T07:49:53.855Z,16864.00
2022-10-22T07:50:53.839Z,14728.00
2022-10-22T07:51:53.848Z,9596.00
2022-10-22T07:52:56.038Z,7692.00
2022-10-22T07:53:53.785Z,6204.00
2022-10-22T07:54:53.767Z,5104.00
2022-10-22T07:55:53.749Z,4500.00
2022-10-22T07:56:53.753Z,5628.00
2022-10-22T07:57:53.711Z,7988.00
2022-10-22T07:58:53.715Z,7952.00
2022-10-22T07:59:53.670Z,17824.00
2022-10-22T08:00:53.659Z,11840.00
2022-10-22T08:01:53.663Z,8888.00
2022-10-22T08:02:53.621Z,8644.00
2022-10-22T08:03:53.601Z,22784.00
2022-10-22T08:04:53.581Z,11696.00
2022-10-22T08:05:53.558Z,10516.00
2022-10-22T08:06:53.579Z,10232.00
2022-10-22T08:07:53.523Z,38464.00
2022-10-22T08:08:53.572Z,10016.00
2022-10-22T08:09:53.486Z,10332.00
2022-10-22T08:10:53.469Z,13072.00
2022-10-22T08:11:53.472Z,8772.00
2022-10-22T08:12:53.431Z,12268.00
2022-10-22T08:13:53.413Z,11696.00
2022-10-22T08:14:53.393Z,10648.00
2022-10-22T08:15:56.545Z,26304.00
2022-10-22T08:16:53.382Z,15616.00
2022-10-22T08:17:53.338Z,16640.00
2022-10-22T08:18:53.315Z,14288.00
2022-10-22T08:19:53.298Z,21536.00
2022-10-22T08:20:53.279Z,35744.00
2022-10-22T08:21:53.289Z,41728.00
2022-10-22T08:22:53.245Z,22080.00
2022-10-22T08:23:53.309Z,15776.00
2022-10-22T08:24:53.210Z,13708.00
2022-10-22T08:25:53.195Z,13632.00
2022-10-22T08:26:53.198Z,11804.00
2022-10-22T08:27:53.155Z,12724.00
2022-10-22T08:28:53.128Z,11240.00
2022-10-22T08:29:53.114Z,9752.00
2022-10-22T08:30:53.100Z,9132.00
2022-10-22T08:31:53.099Z,8056.00
2022-10-22T08:32:54.080Z,7828.00
2022-10-22T08:33:54.033Z,9952.00
2022-10-22T08:34:53.018Z,8148.00
2022-10-22T08:35:53.007Z,6088.00
2022-10-22T08:36:53.004Z,5448.00
2022-10-22T08:37:52.964Z,5072.00
2022-10-22T08:38:52.942Z,4644.00
2022-10-22T08:39:52.923Z,4280.00
2022-10-22T08:40:52.908Z,4104.00
2022-10-22T08:41:52.907Z,3848.00
2022-10-22T08:42:52.872Z,3816.00
2022-10-22T08:43:52.842Z,4260.00
2022-10-22T08:44:52.822Z,4524.00
2022-10-22T08:45:52.813Z,4468.00
2022-10-22T08:46:52.814Z,4628.00
2022-10-22T08:47:52.769Z,4916.00
2022-10-22T08:48:52.747Z,5448.00
2022-10-22T08:49:52.736Z,7468.00
2022-10-22T08:50:52.712Z,9404.00
2022-10-22T08:51:52.713Z,11452.00
2022-10-22T08:52:52.667Z,15152.00
2022-10-22T08:53:52.650Z,29856.00
2022-10-22T08:54:52.621Z,16256.00
2022-10-22T08:55:52.605Z,16576.00
2022-10-22T08:56:52.642Z,21248.00
2022-10-22T08:57:52.806Z,10052.00
2022-10-22T08:58:52.546Z,9292.00
2022-10-22T08:59:52.522Z,10540.00
2022-10-22T09:00:52.507Z,18400.00
2022-10-22T09:01:52.523Z,15168.00
2022-10-22T09:02:52.459Z,11424.00
2022-10-22T09:03:52.440Z,12636.00
2022-10-22T09:04:52.426Z,14664.00
2022-10-22T09:06:53.690Z,9996.00
2022-10-22T09:07:52.361Z,9204.00
2022-10-22T09:08:52.408Z,9728.00
2022-10-22T09:09:52.322Z,8808.00
2022-10-22T09:10:52.301Z,10996.00
2022-10-22T09:11:52.307Z,11864.00
2022-10-22T09:12:52.262Z,11116.00
2022-10-22T09:13:52.240Z,10200.00
2022-10-22T09:14:52.229Z,12908.00
2022-10-22T09:15:52.191Z,15904.00
2022-10-22T09:16:52.226Z,22368.00
2022-10-22T09:17:52.164Z,19424.00
2022-10-22T09:18:52.144Z,14908.00
2022-10-22T09:19:52.132Z,17888.00
2022-10-22T09:20:52.101Z,20384.00
2022-10-22T09:21:52.112Z,15424.00
2022-10-22T09:22:52.065Z,22752.00
2022-10-22T09:23:52.045Z,11260.00
2022-10-22T09:24:52.026Z,47808.00
2022-10-22T09:25:52.007Z,37792.00
2022-10-22T09:26:52.015Z,23936.00
2022-10-22T09:27:51.969Z,26944.00
2022-10-22T09:28:51.943Z,39680.00
2022-10-22T09:29:51.930Z,18848.00
2022-10-22T09:30:51.950Z,29952.00
2022-10-22T09:31:51.922Z,19392.00
2022-10-22T09:32:51.871Z,25312.00
2022-10-22T09:33:51.860Z,16960.00
2022-10-22T09:34:51.843Z,32896.00
2022-10-22T09:35:51.816Z,36800.00
2022-10-22T09:36:51.822Z,44896.00
2022-10-22T09:37:51.778Z,43456.00
2022-10-22T09:38:51.755Z,23232.00
2022-10-22T09:39:51.741Z,19616.00
2022-10-22T09:40:51.722Z,31168.00
2022-10-22T09:41:51.748Z,36640.00
2022-10-22T09:42:51.683Z,46144.00
2022-10-22T09:43:51.659Z,30016.00
2022-10-22T09:44:51.643Z,30624.00
2022-10-22T09:45:51.623Z,33952.00
2022-10-22T09:46:51.630Z,34784.00
2022-10-22T09:48:01.939Z,30208.00
2022-10-22T09:48:53.564Z,29504.00
2022-10-22T09:49:51.548Z,27296.00
2022-10-22T09:50:51.532Z,30656.00
2022-10-22T09:51:51.535Z,35136.00
2022-10-22T09:52:51.492Z,9364.00
2022-10-22T09:53:51.469Z,7692.00
2022-10-22T09:54:51.454Z,10364.00
2022-10-22T09:55:51.464Z,14696.00
2022-10-22T09:56:51.439Z,11848.00
2022-10-22T09:57:51.395Z,10588.00
2022-10-22T09:58:51.386Z,9544.00
2022-10-22T09:59:51.361Z,8528.00
2022-10-22T10:00:51.342Z,8092.00
2022-10-22T10:01:51.345Z,6688.00
2022-10-22T10:02:51.333Z,6280.00
2022-10-22T10:03:51.279Z,6820.00
2022-10-22T10:04:51.261Z,7568.00
2022-10-22T10:05:51.253Z,6604.00
2022-10-22T10:06:51.254Z,6412.00
2022-10-22T10:07:51.205Z,7388.00
2022-10-22T10:08:51.286Z,7340.00
2022-10-22T10:09:51.164Z,8084.00
2022-10-22T10:10:51.145Z,7820.00
2022-10-22T10:11:51.155Z,9600.00
2022-10-22T10:12:51.108Z,10084.00
2022-10-22T10:13:51.089Z,13068.00
2022-10-22T10:14:51.068Z,22432.00
2022-10-22T10:15:51.047Z,11664.00
2022-10-22T10:16:51.054Z,10840.00
2022-10-22T10:17:51.046Z,11768.00
2022-10-22T10:18:50.991Z,24320.00
2022-10-22T10:19:50.973Z,10004.00
2022-10-22T10:20:50.959Z,9048.00
2022-10-22T10:21:50.963Z,10028.00
2022-10-22T10:22:50.922Z,11700.00
2022-10-22T10:23:50.905Z,11672.00
2022-10-22T10:24:50.887Z,11208.00
2022-10-22T10:25:50.863Z,10312.00
2022-10-22T10:26:50.874Z,10948.00
2022-10-22T10:27:50.827Z,13168.00
2022-10-22T10:28:50.811Z,9732.00
2022-10-22T10:29:50.791Z,11804.00
2022-10-22T10:30:50.775Z,11524.00
2022-10-22T10:31:50.779Z,9720.00
2022-10-22T10:32:50.735Z,9320.00
2022-10-22T10:33:50.716Z,8476.00
2022-10-22T10:34:50.696Z,7368.00
2022-10-22T10:35:50.680Z,7092.00
2022-10-22T10:36:50.693Z,7992.00
2022-10-22T10:37:50.689Z,8960.00
2022-10-22T10:38:50.619Z,9788.00
2022-10-22T10:39:50.606Z,10736.00
2022-10-22T10:40:50.590Z,10512.00
2022-10-22T10:41:50.594Z,9660.00
2022-10-22T10:42:50.545Z,7772.00
2022-10-22T10:43:50.528Z,8888.00
2022-10-22T10:44:50.529Z,9024.00
2022-10-22T10:45:55.472Z,8548.00
2022-10-22T10:46:52.528Z,8584.00
2022-10-22T10:47:50.457Z,7892.00
2022-10-22T10:48:50.438Z,7580.00
2022-10-22T10:49:50.418Z,7476.00
2022-10-22T10:50:50.432Z,7424.00
2022-10-22T10:51:50.406Z,7440.00
2022-10-22T10:52:50.360Z,7352.00
2022-10-22T10:53:50.336Z,7292.00
2022-10-22T10:54:50.327Z,7376.00
2022-10-22T10:55:50.303Z,7440.00
2022-10-22T10:56:50.312Z,7728.00
2022-10-22T10:57:50.260Z,7792.00
2022-10-22T10:58:50.240Z,7712.00
2022-10-22T10:59:50.226Z,7572.00
2022-10-22T11:00:50.196Z,7472.00
2022-10-22T11:01:51.265Z,7260.00
2022-10-22T11:02:50.195Z,6992.00
2022-10-22T11:03:50.149Z,7672.00
2022-10-22T11:04:50.122Z,7956.00
2022-10-22T11:05:51.143Z,7988.00
2022-10-22T11:06:50.093Z,8316.00
2022-10-22T11:07:54.912Z,9120.00
2022-10-22T11:08:52.091Z,9248.00
2022-10-22T11:09:50.037Z,8868.00
2022-10-22T11:10:50.047Z,9904.00
2022-10-22T11:11:50.001Z,10384.00
2022-10-22T11:12:49.982Z,10404.00
2022-10-22T11:13:49.959Z,9168.00
2022-10-22T11:14:49.947Z,9880.00
2022-10-22T11:15:49.951Z,10208.00
2022-10-22T11:16:49.903Z,9876.00
2022-10-22T11:17:49.886Z,8512.00
2022-10-22T11:18:49.869Z,9064.00
2022-10-22T11:19:52.281Z,8208.00
2022-10-22T11:20:50.853Z,8712.00
2022-10-22T11:21:49.808Z,8336.00
2022-10-22T11:23:16.892Z,8228.00
2022-10-22T11:23:51.770Z,8328.00
2022-10-22T11:24:50.764Z,7484.00
2022-10-22T11:25:49.758Z,6580.00
2022-10-22T11:26:50.718Z,6900.00
2022-10-22T11:27:49.747Z,6404.00
2022-10-22T11:28:49.705Z,6160.00
2022-10-22T11:29:49.769Z,6468.00
2022-10-22T11:30:49.667Z,6288.00
2022-10-22T11:31:49.626Z,6568.00
2022-10-22T11:32:49.604Z,6456.00
2022-10-22T11:33:49.584Z,6316.00
2022-10-22T11:34:49.568Z,6240.00
2022-10-22T11:35:49.576Z,6012.00
2022-10-22T11:36:49.532Z,5728.00
2022-10-22T11:37:49.512Z,5396.00
2022-10-22T11:38:49.494Z,5196.00
2022-10-22T11:39:49.476Z,5152.00
2022-10-22T11:40:49.480Z,4948.00
2022-10-22T11:41:49.432Z,4876.00
2022-10-22T11:42:49.416Z,4864.00
2022-10-22T11:43:49.393Z,4780.00
2022-10-22T11:44:49.507Z,4868.00
2022-10-22T11:45:49.385Z,5096.00
2022-10-22T11:46:49.338Z,5320.00
2022-10-22T11:47:49.316Z,5488.00
2022-10-22T11:48:49.297Z,5712.00
2022-10-22T11:49:49.276Z,6100.00
2022-10-22T11:50:49.284Z,6700.00
2022-10-22T11:51:49.242Z,7152.00
2022-10-22T11:52:49.221Z,7424.00
2022-10-22T11:53:49.200Z,7052.00
2022-10-22T11:54:49.178Z,6832.00
2022-10-22T11:55:49.190Z,6652.00
2022-10-22T11:56:49.146Z,6532.00
2022-10-22T11:57:49.123Z,6772.00
2022-10-22T11:58:52.247Z,6528.00
2022-10-22T11:59:51.088Z,5652.00
2022-10-22T12:00:49.094Z,4836.00
2022-10-22T12:01:49.048Z,4552.00
2022-10-22T12:02:49.033Z,4776.00
2022-10-22T12:03:49.011Z,4728.00
2022-10-22T12:04:49.030Z,4536.00
2022-10-22T12:05:48.998Z,5044.00
2022-10-22T12:06:48.950Z,5472.00
2022-10-22T12:07:48.944Z,5488.00
2022-10-22T12:08:48.991Z,5376.00
2022-10-22T12:09:48.931Z,5184.00
2022-10-22T12:10:48.904Z,5072.00
2022-10-22T12:11:48.857Z,5000.00
2022-10-22T12:12:48.837Z,4860.00
2022-10-22T12:13:48.823Z,4648.00
2022-10-22T12:14:48.805Z,4188.00
2022-10-22T12:15:48.807Z,3820.00
2022-10-22T12:16:56.094Z,3676.00
2022-10-22T12:17:50.749Z,3832.00
2022-10-22T12:18:48.724Z,3956.00
2022-10-22T12:19:48.709Z,4496.00
2022-10-22T12:20:48.714Z,5380.00
2022-10-22T12:21:48.671Z,5872.00
2022-10-22T12:22:48.650Z,5932.00
2022-10-22T12:23:48.623Z,6092.00
2022-10-22T12:24:49.609Z,6756.00
2022-10-22T12:25:48.616Z,7220.00
2022-10-22T12:26:48.571Z,6752.00
2022-10-22T12:27:48.549Z,6088.00
2022-10-22T12:28:48.533Z,6020.00
2022-10-22T12:29:48.517Z,6124.00
2022-10-22T12:30:48.520Z,6476.00
2022-10-22T12:31:48.471Z,6820.00
2022-10-22T12:32:48.449Z,7192.00
2022-10-22T12:33:48.576Z,7464.00
2022-10-22T12:35:48.423Z,7576.00
2022-10-22T12:36:48.626Z,6680.00
2022-10-22T12:37:48.357Z,6376.00
2022-10-22T12:38:48.350Z,6100.00
2022-10-22T12:39:48.318Z,6292.00
2022-10-22T12:40:48.840Z,7092.00